sensor_id;sensor_type;location;lat;lon;timestamp;temperature;humidity
67777;DHT22;54576;52.020;5.536;2022-12-08T00:01:08;4.40;99.90
67777;DHT22;54576;52.020;5.536;2022-12-08T00:03:34;4.30;99.90
67777;DHT22;54576;52.020;5.536;2022-12-08T00:06:02;4.30;99.90
67777;DHT22;54576;52.020;5.536;2022-12-08T00:08:47;4.30;99.90
67777;DHT22;54576;52.020;5.536;2022-12-08T00:11:32;4.30;99.90
67777;DHT22;54576;52.020;5.536;2022-12-08T00:13:57;4.30;99.90
67777;DHT22;54576;52.020;5.536;2022-12-08T00:16:23;4.30;99.90
67777;DHT22;54576;52.020;5.536;2022-12-08T00:18:48;4.40;99.90
67777;DHT22;54576;52.020;5.536;2022-12-08T00:21:14;4.40;99.90
67777;DHT22;54576;52.020;5.536;2022-12-08T00:23:40;4.40;99.90
67777;DHT22;54576;52.020;5.536;2022-12-08T00:26:06;4.40;99.90
67777;DHT22;54576;52.020;5.536;2022-12-08T00:28:33;4.40;99.90
67777;DHT22;54576;52.020;5.536;2022-12-08T00:30:59;4.40;99.90
67777;DHT22;54576;52.020;5.536;2022-12-08T00:33:27;4.40;99.90
67777;DHT22;54576;52.020;5.536;2022-12-08T00:35:53;4.40;99.90
67777;DHT22;54576;52.020;5.536;2022-12-08T00:38:19;4.40;99.90
67777;DHT22;54576;52.020;5.536;2022-12-08T00:40:46;4.40;99.90
67777;DHT22;54576;52.020;5.536;2022-12-08T00:43:12;4.40;99.90
67777;DHT22;54576;52.020;5.536;2022-12-08T00:45:38;4.40;99.90
67777;DHT22;54576;52.020;5.536;2022-12-08T00:48:04;4.40;99.90
67777;DHT22;54576;52.020;5.536;2022-12-08T00:50:30;4.40;99.90
67777;DHT22;54576;52.020;5.536;2022-12-08T00:52:55;4.40;99.90
67777;DHT22;54576;52.020;5.536;2022-12-08T00:55:25;4.50;99.90
67777;DHT22;54576;52.020;5.536;2022-12-08T00:57:51;4.50;99.90
67777;DHT22;54576;52.020;5.536;2022-12-08T01:00:16;4.50;99.90
67777;DHT22;54576;52.020;5.536;2022-12-08T01:02:42;4.50;99.90
67777;DHT22;54576;52.020;5.536;2022-12-08T01:05:08;4.50;99.90
67777;DHT22;54576;52.020;5.536;2022-12-08T01:07:33;4.60;99.90
67777;DHT22;54576;52.020;5.536;2022-12-08T01:09:59;4.60;99.90
67777;DHT22;54576;52.020;5.536;2022-12-08T01:12:28;4.50;99.90
67777;DHT22;54576;52.020;5.536;2022-12-08T01:14:54;4.50;99.90
67777;DHT22;54576;52.020;5.536;2022-12-08T01:17:20;4.50;99.90
67777;DHT22;54576;52.020;5.536;2022-12-08T01:19:45;4.50;99.90
67777;DHT22;54576;52.020;5.536;2022-12-08T01:22:12;4.50;99.90
67777;DHT22;54576;52.020;5.536;2022-12-08T01:24:38;4.50;99.90
67777;DHT22;54576;52.020;5.536;2022-12-08T01:27:05;4.40;99.90
67777;DHT22;54576;52.020;5.536;2022-12-08T01:29:31;4.40;99.90
67777;DHT22;54576;52.020;5.536;2022-12-08T01:31:57;4.40;99.90
67777;DHT22;54576;52.020;5.536;2022-12-08T01:34:22;4.40;99.90
67777;DHT22;54576;52.020;5.536;2022-12-08T01:36:48;4.40;99.90
67777;DHT22;54576;52.020;5.536;2022-12-08T01:39:16;4.40;99.90
67777;DHT22;54576;52.020;5.536;2022-12-08T01:41:43;4.30;99.90
67777;DHT22;54576;52.020;5.536;2022-12-08T01:46:40;4.40;99.90
67777;DHT22;54576;52.020;5.536;2022-12-08T01:49:29;4.40;99.90
67777;DHT22;54576;52.020;5.536;2022-12-08T01:52:17;4.40;99.90
67777;DHT22;54576;52.020;5.536;2022-12-08T01:54:49;4.50;99.90
67777;DHT22;54576;52.020;5.536;2022-12-08T01:57:21;4.50;99.90
67777;DHT22;54576;52.020;5.536;2022-12-08T01:59:55;4.50;99.90
67777;DHT22;54576;52.020;5.536;2022-12-08T02:02:26;4.50;99.90
67777;DHT22;54576;52.020;5.536;2022-12-08T02:04:55;4.40;99.90
67777;DHT22;54576;52.020;5.536;2022-12-08T02:07:21;4.40;99.90
67777;DHT22;54576;52.020;5.536;2022-12-08T02:09:47;4.40;99.90
67777;DHT22;54576;52.020;5.536;2022-12-08T02:12:13;4.40;99.90
67777;DHT22;54576;52.020;5.536;2022-12-08T02:14:39;4.50;99.90
67777;DHT22;54576;52.020;5.536;2022-12-08T02:29:15;4.60;99.90
67777;DHT22;54576;52.020;5.536;2022-12-08T02:42:41;4.50;99.90
67777;DHT22;54576;52.020;5.536;2022-12-08T02:45:16;4.60;99.90
67777;DHT22;54576;52.020;5.536;2022-12-08T02:47:43;4.60;99.90
67777;DHT22;54576;52.020;5.536;2022-12-08T02:50:09;4.50;99.90
67777;DHT22;54576;52.020;5.536;2022-12-08T02:52:44;4.60;99.90
67777;DHT22;54576;52.020;5.536;2022-12-08T02:55:21;4.50;99.90
67777;DHT22;54576;52.020;5.536;2022-12-08T03:01:09;4.60;99.90
67777;DHT22;54576;52.020;5.536;2022-12-08T03:07:06;4.60;99.90
67777;DHT22;54576;52.020;5.536;2022-12-08T03:09:38;4.60;99.90
67777;DHT22;54576;52.020;5.536;2022-12-08T03:12:24;4.60;99.90
67777;DHT22;54576;52.020;5.536;2022-12-08T03:14:53;4.50;99.90
67777;DHT22;54576;52.020;5.536;2022-12-08T03:17:23;4.50;99.90
67777;DHT22;54576;52.020;5.536;2022-12-08T03:19:51;4.50;99.90
67777;DHT22;54576;52.020;5.536;2022-12-08T03:22:21;4.50;99.90
67777;DHT22;54576;52.020;5.536;2022-12-08T03:24:49;4.50;99.90
67777;DHT22;54576;52.020;5.536;2022-12-08T03:27:17;4.50;99.90
67777;DHT22;54576;52.020;5.536;2022-12-08T03:29:48;4.50;99.90
67777;DHT22;54576;52.020;5.536;2022-12-08T03:35:18;4.50;99.90
67777;DHT22;54576;52.020;5.536;2022-12-08T03:37:47;4.50;99.90
67777;DHT22;54576;52.020;5.536;2022-12-08T03:40:17;4.50;99.90
67777;DHT22;54576;52.020;5.536;2022-12-08T03:42:43;4.50;99.90
67777;DHT22;54576;52.020;5.536;2022-12-08T03:45:09;4.50;99.90
67777;DHT22;54576;52.020;5.536;2022-12-08T03:47:35;4.50;99.90
67777;DHT22;54576;52.020;5.536;2022-12-08T03:50:02;4.60;99.90
67777;DHT22;54576;52.020;5.536;2022-12-08T03:52:28;4.60;99.90
67777;DHT22;54576;52.020;5.536;2022-12-08T03:54:55;4.60;99.90
67777;DHT22;54576;52.020;5.536;2022-12-08T03:57:20;4.60;99.90
67777;DHT22;54576;52.020;5.536;2022-12-08T03:59:46;4.60;99.90
67777;DHT22;54576;52.020;5.536;2022-12-08T04:02:12;4.60;99.90
67777;DHT22;54576;52.020;5.536;2022-12-08T04:04:37;4.60;99.90
67777;DHT22;54576;52.020;5.536;2022-12-08T04:07:03;4.50;99.90
67777;DHT22;54576;52.020;5.536;2022-12-08T04:09:28;4.60;99.90
67777;DHT22;54576;52.020;5.536;2022-12-08T04:11:54;4.60;99.90
67777;DHT22;54576;52.020;5.536;2022-12-08T04:14:19;4.60;99.90
67777;DHT22;54576;52.020;5.536;2022-12-08T04:16:45;4.60;99.90
67777;DHT22;54576;52.020;5.536;2022-12-08T04:19:10;4.60;99.90
67777;DHT22;54576;52.020;5.536;2022-12-08T04:21:37;4.60;99.90
67777;DHT22;54576;52.020;5.536;2022-12-08T04:24:03;4.60;99.90
67777;DHT22;54576;52.020;5.536;2022-12-08T04:26:28;4.60;99.90
67777;DHT22;54576;52.020;5.536;2022-12-08T04:28:54;4.60;99.90
67777;DHT22;54576;52.020;5.536;2022-12-08T04:31:19;4.60;99.90
67777;DHT22;54576;52.020;5.536;2022-12-08T04:33:45;4.60;99.90
67777;DHT22;54576;52.020;5.536;2022-12-08T04:36:11;4.60;99.90
67777;DHT22;54576;52.020;5.536;2022-12-08T04:38:38;4.60;99.90
67777;DHT22;54576;52.020;5.536;2022-12-08T04:41:07;4.60;99.90
67777;DHT22;54576;52.020;5.536;2022-12-08T04:43:34;4.60;99.90
67777;DHT22;54576;52.020;5.536;2022-12-08T04:46:07;4.60;99.90
67777;DHT22;54576;52.020;5.536;2022-12-08T04:48:33;4.60;99.90
67777;DHT22;54576;52.020;5.536;2022-12-08T04:51:00;4.60;99.90
67777;DHT22;54576;52.020;5.536;2022-12-08T04:53:26;4.50;99.90
67777;DHT22;54576;52.020;5.536;2022-12-08T04:55:51;4.50;99.90
67777;DHT22;54576;52.020;5.536;2022-12-08T04:58:18;4.50;99.90
67777;DHT22;54576;52.020;5.536;2022-12-08T05:00:44;4.60;99.90
67777;DHT22;54576;52.020;5.536;2022-12-08T05:03:10;4.60;99.90
67777;DHT22;54576;52.020;5.536;2022-12-08T05:05:40;4.60;99.90
67777;DHT22;54576;52.020;5.536;2022-12-08T05:08:06;4.50;99.90
67777;DHT22;54576;52.020;5.536;2022-12-08T05:10:32;4.60;99.90
67777;DHT22;54576;52.020;5.536;2022-12-08T05:12:58;4.60;99.90
67777;DHT22;54576;52.020;5.536;2022-12-08T05:15:25;4.50;99.90
67777;DHT22;54576;52.020;5.536;2022-12-08T05:17:50;4.50;99.90
67777;DHT22;54576;52.020;5.536;2022-12-08T05:20:16;4.40;99.90
67777;DHT22;54576;52.020;5.536;2022-12-08T05:22:42;4.40;99.90
67777;DHT22;54576;52.020;5.536;2022-12-08T05:25:08;4.40;99.90
67777;DHT22;54576;52.020;5.536;2022-12-08T05:27:33;4.40;99.90
67777;DHT22;54576;52.020;5.536;2022-12-08T05:29:59;4.30;99.90
67777;DHT22;54576;52.020;5.536;2022-12-08T05:32:25;4.30;99.90
67777;DHT22;54576;52.020;5.536;2022-12-08T05:34:51;4.30;99.90
67777;DHT22;54576;52.020;5.536;2022-12-08T05:37:17;4.30;99.90
67777;DHT22;54576;52.020;5.536;2022-12-08T05:39:42;4.30;99.90
67777;DHT22;54576;52.020;5.536;2022-12-08T05:42:08;4.30;99.90
67777;DHT22;54576;52.020;5.536;2022-12-08T05:44:33;4.30;99.90
67777;DHT22;54576;52.020;5.536;2022-12-08T05:46:59;4.30;99.90
67777;DHT22;54576;52.020;5.536;2022-12-08T05:49:25;4.30;99.90
67777;DHT22;54576;52.020;5.536;2022-12-08T05:51:50;4.30;99.90
67777;DHT22;54576;52.020;5.536;2022-12-08T05:54:16;4.30;99.90
67777;DHT22;54576;52.020;5.536;2022-12-08T05:56:42;4.30;99.90
67777;DHT22;54576;52.020;5.536;2022-12-08T05:59:07;4.30;99.90
67777;DHT22;54576;52.020;5.536;2022-12-08T06:01:33;4.30;99.90
67777;DHT22;54576;52.020;5.536;2022-12-08T06:04:02;4.40;99.90
67777;DHT22;54576;52.020;5.536;2022-12-08T06:06:29;4.40;99.90
67777;DHT22;54576;52.020;5.536;2022-12-08T06:08:55;4.40;99.90
67777;DHT22;54576;52.020;5.536;2022-12-08T06:11:23;4.40;99.90
67777;DHT22;54576;52.020;5.536;2022-12-08T06:13:50;4.40;99.90
67777;DHT22;54576;52.020;5.536;2022-12-08T06:16:16;4.40;99.90
67777;DHT22;54576;52.020;5.536;2022-12-08T06:18:42;4.40;99.90
67777;DHT22;54576;52.020;5.536;2022-12-08T06:21:10;4.40;99.90
67777;DHT22;54576;52.020;5.536;2022-12-08T06:23:36;4.40;99.90
67777;DHT22;54576;52.020;5.536;2022-12-08T06:26:03;4.30;99.90
67777;DHT22;54576;52.020;5.536;2022-12-08T06:28:30;4.40;99.90
67777;DHT22;54576;52.020;5.536;2022-12-08T06:30:56;4.40;99.90
67777;DHT22;54576;52.020;5.536;2022-12-08T06:33:22;4.40;99.90
67777;DHT22;54576;52.020;5.536;2022-12-08T06:35:47;4.40;99.90
67777;DHT22;54576;52.020;5.536;2022-12-08T06:38:13;4.40;99.90
67777;DHT22;54576;52.020;5.536;2022-12-08T06:40:38;4.30;99.90
67777;DHT22;54576;52.020;5.536;2022-12-08T06:43:04;4.30;99.90
67777;DHT22;54576;52.020;5.536;2022-12-08T06:45:29;4.30;99.90
67777;DHT22;54576;52.020;5.536;2022-12-08T06:47:55;4.30;99.90
67777;DHT22;54576;52.020;5.536;2022-12-08T06:50:20;4.30;99.90
67777;DHT22;54576;52.020;5.536;2022-12-08T06:52:46;4.30;99.90
67777;DHT22;54576;52.020;5.536;2022-12-08T06:55:11;4.30;99.90
67777;DHT22;54576;52.020;5.536;2022-12-08T06:57:37;4.30;99.90
67777;DHT22;54576;52.020;5.536;2022-12-08T07:00:04;4.20;99.90
67777;DHT22;54576;52.020;5.536;2022-12-08T07:02:30;4.20;99.90
67777;DHT22;54576;52.020;5.536;2022-12-08T07:04:55;4.20;99.90
67777;DHT22;54576;52.020;5.536;2022-12-08T07:07:21;4.10;99.90
67777;DHT22;54576;52.020;5.536;2022-12-08T07:09:47;4.20;99.90
67777;DHT22;54576;52.020;5.536;2022-12-08T07:12:12;4.20;99.90
67777;DHT22;54576;52.020;5.536;2022-12-08T07:14:38;4.10;99.90
67777;DHT22;54576;52.020;5.536;2022-12-08T07:17:03;4.20;99.90
67777;DHT22;54576;52.020;5.536;2022-12-08T07:19:29;4.10;99.90
67777;DHT22;54576;52.020;5.536;2022-12-08T07:21:54;4.10;99.90
67777;DHT22;54576;52.020;5.536;2022-12-08T07:24:23;4.10;99.90
67777;DHT22;54576;52.020;5.536;2022-12-08T07:26:49;4.10;99.90
67777;DHT22;54576;52.020;5.536;2022-12-08T07:29:14;4.00;99.90
67777;DHT22;54576;52.020;5.536;2022-12-08T07:31:40;4.00;99.90
67777;DHT22;54576;52.020;5.536;2022-12-08T07:34:05;3.90;99.90
67777;DHT22;54576;52.020;5.536;2022-12-08T07:36:31;3.90;99.90
67777;DHT22;54576;52.020;5.536;2022-12-08T07:38:57;3.90;99.90
67777;DHT22;54576;52.020;5.536;2022-12-08T07:41:24;3.90;99.90
67777;DHT22;54576;52.020;5.536;2022-12-08T07:43:51;3.90;99.90
67777;DHT22;54576;52.020;5.536;2022-12-08T07:46:19;3.90;99.90
67777;DHT22;54576;52.020;5.536;2022-12-08T07:48:45;3.90;99.90
67777;DHT22;54576;52.020;5.536;2022-12-08T07:51:12;3.90;99.90
67777;DHT22;54576;52.020;5.536;2022-12-08T07:53:43;3.90;99.90
67777;DHT22;54576;52.020;5.536;2022-12-08T07:56:10;3.80;99.90
67777;DHT22;54576;52.020;5.536;2022-12-08T07:58:36;3.80;99.90
67777;DHT22;54576;52.020;5.536;2022-12-08T08:01:02;3.80;99.90
67777;DHT22;54576;52.020;5.536;2022-12-08T08:03:27;3.80;99.90
67777;DHT22;54576;52.020;5.536;2022-12-08T08:05:53;3.80;99.90
67777;DHT22;54576;52.020;5.536;2022-12-08T08:08:19;3.70;99.90
67777;DHT22;54576;52.020;5.536;2022-12-08T08:10:47;3.70;99.90
67777;DHT22;54576;52.020;5.536;2022-12-08T08:13:12;3.80;99.90
67777;DHT22;54576;52.020;5.536;2022-12-08T08:15:38;3.80;99.90
67777;DHT22;54576;52.020;5.536;2022-12-08T08:18:04;3.80;99.90
67777;DHT22;54576;52.020;5.536;2022-12-08T08:20:30;3.80;99.90
67777;DHT22;54576;52.020;5.536;2022-12-08T08:22:55;3.80;99.90
67777;DHT22;54576;52.020;5.536;2022-12-08T08:25:21;3.80;99.90
67777;DHT22;54576;52.020;5.536;2022-12-08T08:27:48;3.80;99.90
67777;DHT22;54576;52.020;5.536;2022-12-08T08:30:18;3.70;99.90
67777;DHT22;54576;52.020;5.536;2022-12-08T08:32:44;3.70;99.90
67777;DHT22;54576;52.020;5.536;2022-12-08T08:35:09;3.70;99.90
67777;DHT22;54576;52.020;5.536;2022-12-08T08:37:35;3.70;99.90
67777;DHT22;54576;52.020;5.536;2022-12-08T08:40:01;3.70;99.90
67777;DHT22;54576;52.020;5.536;2022-12-08T08:42:27;3.80;99.90
67777;DHT22;54576;52.020;5.536;2022-12-08T08:44:52;3.80;99.90
67777;DHT22;54576;52.020;5.536;2022-12-08T08:47:18;3.80;99.90
67777;DHT22;54576;52.020;5.536;2022-12-08T08:49:44;3.80;99.90
67777;DHT22;54576;52.020;5.536;2022-12-08T08:52:10;3.80;99.90
67777;DHT22;54576;52.020;5.536;2022-12-08T08:54:35;3.80;99.90
67777;DHT22;54576;52.020;5.536;2022-12-08T08:57:01;3.80;99.90
67777;DHT22;54576;52.020;5.536;2022-12-08T08:59:30;3.80;99.90
67777;DHT22;54576;52.020;5.536;2022-12-08T09:01:55;3.80;99.90
67777;DHT22;54576;52.020;5.536;2022-12-08T09:04:21;3.90;99.90
67777;DHT22;54576;52.020;5.536;2022-12-08T09:06:47;3.90;99.90
67777;DHT22;54576;52.020;5.536;2022-12-08T09:09:14;3.90;99.90
67777;DHT22;54576;52.020;5.536;2022-12-08T09:11:41;3.90;99.90
67777;DHT22;54576;52.020;5.536;2022-12-08T09:14:06;3.90;99.90
67777;DHT22;54576;52.020;5.536;2022-12-08T09:16:32;3.80;99.90
67777;DHT22;54576;52.020;5.536;2022-12-08T09:18:58;3.80;99.90
67777;DHT22;54576;52.020;5.536;2022-12-08T09:21:25;3.80;99.90
67777;DHT22;54576;52.020;5.536;2022-12-08T09:23:53;3.80;99.90
67777;DHT22;54576;52.020;5.536;2022-12-08T09:26:19;3.90;99.90
67777;DHT22;54576;52.020;5.536;2022-12-08T09:28:47;3.80;99.90
67777;DHT22;54576;52.020;5.536;2022-12-08T09:31:15;3.80;99.90
67777;DHT22;54576;52.020;5.536;2022-12-08T09:33:41;3.80;99.90
67777;DHT22;54576;52.020;5.536;2022-12-08T09:36:07;3.80;99.90
67777;DHT22;54576;52.020;5.536;2022-12-08T09:38:37;3.80;99.90
67777;DHT22;54576;52.020;5.536;2022-12-08T09:41:13;3.80;99.90
67777;DHT22;54576;52.020;5.536;2022-12-08T09:43:57;3.90;99.90
67777;DHT22;54576;52.020;5.536;2022-12-08T09:46:27;3.90;99.90
67777;DHT22;54576;52.020;5.536;2022-12-08T09:48:57;3.90;99.90
67777;DHT22;54576;52.020;5.536;2022-12-08T09:51:25;4.00;99.90
67777;DHT22;54576;52.020;5.536;2022-12-08T09:53:59;4.00;99.90
67777;DHT22;54576;52.020;5.536;2022-12-08T09:56:27;4.00;99.90
67777;DHT22;54576;52.020;5.536;2022-12-08T10:01:28;4.10;99.90
67777;DHT22;54576;52.020;5.536;2022-12-08T10:03:55;4.10;99.90
67777;DHT22;54576;52.020;5.536;2022-12-08T10:06:40;4.10;99.90
67777;DHT22;54576;52.020;5.536;2022-12-08T10:09:27;4.10;99.90
67777;DHT22;54576;52.020;5.536;2022-12-08T10:12:01;4.10;99.90
67777;DHT22;54576;52.020;5.536;2022-12-08T10:14:36;4.10;99.90
67777;DHT22;54576;52.020;5.536;2022-12-08T10:17:25;4.00;99.90
67777;DHT22;54576;52.020;5.536;2022-12-08T10:19:58;4.00;99.90
67777;DHT22;54576;52.020;5.536;2022-12-08T10:22:28;4.10;99.90
67777;DHT22;54576;52.020;5.536;2022-12-08T10:25:16;4.10;99.90
67777;DHT22;54576;52.020;5.536;2022-12-08T10:27:42;4.10;99.90
67777;DHT22;54576;52.020;5.536;2022-12-08T10:30:19;4.10;99.90
67777;DHT22;54576;52.020;5.536;2022-12-08T10:32:47;4.10;99.90
67777;DHT22;54576;52.020;5.536;2022-12-08T10:35:15;4.10;99.90
67777;DHT22;54576;52.020;5.536;2022-12-08T10:37:57;4.20;99.90
67777;DHT22;54576;52.020;5.536;2022-12-08T10:40:26;4.30;99.90
67777;DHT22;54576;52.020;5.536;2022-12-08T10:42:55;4.30;99.90
67777;DHT22;54576;52.020;5.536;2022-12-08T10:45:39;4.30;99.90
67777;DHT22;54576;52.020;5.536;2022-12-08T10:48:13;4.30;99.90
67777;DHT22;54576;52.020;5.536;2022-12-08T10:50:45;4.40;99.90
67777;DHT22;54576;52.020;5.536;2022-12-08T10:53:20;4.50;99.90
67777;DHT22;54576;52.020;5.536;2022-12-08T10:58:35;4.60;99.90
67777;DHT22;54576;52.020;5.536;2022-12-08T11:01:24;4.70;99.90
67777;DHT22;54576;52.020;5.536;2022-12-08T11:03:59;4.70;99.90
67777;DHT22;54576;52.020;5.536;2022-12-08T11:06:34;4.80;99.90
67777;DHT22;54576;52.020;5.536;2022-12-08T11:09:04;4.80;99.90
67777;DHT22;54576;52.020;5.536;2022-12-08T11:11:44;4.70;99.90
67777;DHT22;54576;52.020;5.536;2022-12-08T11:14:18;4.70;99.90
67777;DHT22;54576;52.020;5.536;2022-12-08T11:16:44;4.70;99.90
67777;DHT22;54576;52.020;5.536;2022-12-08T11:19:15;4.70;99.90
67777;DHT22;54576;52.020;5.536;2022-12-08T11:21:41;4.80;99.90
67777;DHT22;54576;52.020;5.536;2022-12-08T11:24:26;4.80;99.90
67777;DHT22;54576;52.020;5.536;2022-12-08T11:27:00;4.80;99.90
67777;DHT22;54576;52.020;5.536;2022-12-08T11:29:31;4.70;99.90
67777;DHT22;54576;52.020;5.536;2022-12-08T11:32:20;4.80;99.90
67777;DHT22;54576;52.020;5.536;2022-12-08T11:34:50;4.80;99.90
67777;DHT22;54576;52.020;5.536;2022-12-08T11:37:34;4.80;99.90
67777;DHT22;54576;52.020;5.536;2022-12-08T11:40:25;4.80;99.90
67777;DHT22;54576;52.020;5.536;2022-12-08T11:45:40;4.60;99.90
67777;DHT22;54576;52.020;5.536;2022-12-08T11:48:11;4.60;99.90
67777;DHT22;54576;52.020;5.536;2022-12-08T11:50:48;4.70;99.90
67777;DHT22;54576;52.020;5.536;2022-12-08T11:59:30;4.60;99.90
67777;DHT22;54576;52.020;5.536;2022-12-08T12:02:24;4.60;99.90
67777;DHT22;54576;52.020;5.536;2022-12-08T12:04:56;4.60;99.90
67777;DHT22;54576;52.020;5.536;2022-12-08T12:10:43;4.70;99.90
67777;DHT22;54576;52.020;5.536;2022-12-08T12:19:13;4.70;99.90
67777;DHT22;54576;52.020;5.536;2022-12-08T12:22:05;4.60;99.90
67777;DHT22;54576;52.020;5.536;2022-12-08T12:24:33;4.60;99.90
67777;DHT22;54576;52.020;5.536;2022-12-08T12:29:47;4.60;99.90
67777;DHT22;54576;52.020;5.536;2022-12-08T12:32:19;4.60;99.90
67777;DHT22;54576;52.020;5.536;2022-12-08T12:34:56;4.60;99.90
67777;DHT22;54576;52.020;5.536;2022-12-08T12:37:38;4.60;99.90
67777;DHT22;54576;52.020;5.536;2022-12-08T12:40:17;4.60;99.90
67777;DHT22;54576;52.020;5.536;2022-12-08T12:42:47;4.60;99.90
67777;DHT22;54576;52.020;5.536;2022-12-08T12:45:36;4.50;99.90
67777;DHT22;54576;52.020;5.536;2022-12-08T12:50:46;4.60;99.90
67777;DHT22;54576;52.020;5.536;2022-12-08T12:56:00;4.50;99.90
67777;DHT22;54576;52.020;5.536;2022-12-08T13:04:04;4.40;99.90
67777;DHT22;54576;52.020;5.536;2022-12-08T13:06:50;4.40;99.90
67777;DHT22;54576;52.020;5.536;2022-12-08T13:09:34;4.40;99.90
67777;DHT22;54576;52.020;5.536;2022-12-08T13:12:17;4.50;99.90
67777;DHT22;54576;52.020;5.536;2022-12-08T13:14:47;4.40;99.90
67777;DHT22;54576;52.020;5.536;2022-12-08T13:17:19;4.40;99.90
67777;DHT22;54576;52.020;5.536;2022-12-08T13:19:47;4.50;99.90
67777;DHT22;54576;52.020;5.536;2022-12-08T13:22:47;4.50;99.90
67777;DHT22;54576;52.020;5.536;2022-12-08T13:28:17;4.40;99.90
67777;DHT22;54576;52.020;5.536;2022-12-08T13:31:00;4.40;99.90
67777;DHT22;54576;52.020;5.536;2022-12-08T13:33:39;4.40;99.90
67777;DHT22;54576;52.020;5.536;2022-12-08T13:36:31;4.40;99.90
67777;DHT22;54576;52.020;5.536;2022-12-08T13:39:00;4.40;99.90
67777;DHT22;54576;52.020;5.536;2022-12-08T13:41:40;4.40;99.90
67777;DHT22;54576;52.020;5.536;2022-12-08T13:44:14;4.40;99.90
67777;DHT22;54576;52.020;5.536;2022-12-08T13:46:54;4.40;99.90
67777;DHT22;54576;52.020;5.536;2022-12-08T13:49:25;4.40;99.90
67777;DHT22;54576;52.020;5.536;2022-12-08T13:51:53;4.40;99.90
67777;DHT22;54576;52.020;5.536;2022-12-08T13:54:38;4.40;99.90
67777;DHT22;54576;52.020;5.536;2022-12-08T13:57:06;4.40;99.90
67777;DHT22;54576;52.020;5.536;2022-12-08T13:59:34;4.40;99.90
67777;DHT22;54576;52.020;5.536;2022-12-08T14:02:19;4.30;99.90
67777;DHT22;54576;52.020;5.536;2022-12-08T14:04:49;4.30;99.90
67777;DHT22;54576;52.020;5.536;2022-12-08T14:07:15;4.20;99.90
67777;DHT22;54576;52.020;5.536;2022-12-08T14:09:41;4.20;99.90
67777;DHT22;54576;52.020;5.536;2022-12-08T14:12:19;4.20;99.90
67777;DHT22;54576;52.020;5.536;2022-12-08T14:14:49;4.10;99.90
67777;DHT22;54576;52.020;5.536;2022-12-08T14:17:20;4.10;99.90
67777;DHT22;54576;52.020;5.536;2022-12-08T14:20:00;4.10;99.90
67777;DHT22;54576;52.020;5.536;2022-12-08T14:22:34;4.10;99.90
67777;DHT22;54576;52.020;5.536;2022-12-08T14:25:00;4.10;99.90
67777;DHT22;54576;52.020;5.536;2022-12-08T14:27:26;4.10;99.90
67777;DHT22;54576;52.020;5.536;2022-12-08T14:30:07;4.10;99.90
67777;DHT22;54576;52.020;5.536;2022-12-08T14:35:28;4.00;99.90
67777;DHT22;54576;52.020;5.536;2022-12-08T14:37:59;4.00;99.90
67777;DHT22;54576;52.020;5.536;2022-12-08T14:40:38;3.90;99.90
67777;DHT22;54576;52.020;5.536;2022-12-08T14:45:29;3.90;99.90
67777;DHT22;54576;52.020;5.536;2022-12-08T14:48:20;3.80;99.90
67777;DHT22;54576;52.020;5.536;2022-12-08T14:50:57;3.80;99.90
67777;DHT22;54576;52.020;5.536;2022-12-08T14:53:24;3.70;99.90
67777;DHT22;54576;52.020;5.536;2022-12-08T14:55:50;3.70;99.90
67777;DHT22;54576;52.020;5.536;2022-12-08T14:58:27;3.70;99.90
67777;DHT22;54576;52.020;5.536;2022-12-08T15:00:55;3.60;99.90
67777;DHT22;54576;52.020;5.536;2022-12-08T15:03:27;3.60;99.90
67777;DHT22;54576;52.020;5.536;2022-12-08T15:05:56;3.60;99.90
67777;DHT22;54576;52.020;5.536;2022-12-08T15:08:23;3.60;99.90
67777;DHT22;54576;52.020;5.536;2022-12-08T15:13:46;3.60;99.90
67777;DHT22;54576;52.020;5.536;2022-12-08T15:19:17;3.60;99.90
67777;DHT22;54576;52.020;5.536;2022-12-08T15:21:45;3.60;99.90
67777;DHT22;54576;52.020;5.536;2022-12-08T15:24:11;3.50;99.90
67777;DHT22;54576;52.020;5.536;2022-12-08T15:26:50;3.60;99.90
67777;DHT22;54576;52.020;5.536;2022-12-08T15:29:25;3.60;99.90
67777;DHT22;54576;52.020;5.536;2022-12-08T15:31:52;3.60;99.90
67777;DHT22;54576;52.020;5.536;2022-12-08T15:34:19;3.60;99.90
67777;DHT22;54576;52.020;5.536;2022-12-08T15:36:46;3.60;99.90
67777;DHT22;54576;52.020;5.536;2022-12-08T15:39:35;3.60;99.90
67777;DHT22;54576;52.020;5.536;2022-12-08T15:42:03;3.60;99.90
67777;DHT22;54576;52.020;5.536;2022-12-08T15:44:29;3.60;99.90
67777;DHT22;54576;52.020;5.536;2022-12-08T15:46:57;3.60;99.90
67777;DHT22;54576;52.020;5.536;2022-12-08T15:49:24;3.70;99.90
67777;DHT22;54576;52.020;5.536;2022-12-08T15:51:53;3.70;99.90
67777;DHT22;54576;52.020;5.536;2022-12-08T15:54:19;3.70;99.90
67777;DHT22;54576;52.020;5.536;2022-12-08T15:56:49;3.70;99.90
67777;DHT22;54576;52.020;5.536;2022-12-08T15:59:21;3.70;99.90
67777;DHT22;54576;52.020;5.536;2022-12-08T16:01:47;3.70;99.90
67777;DHT22;54576;52.020;5.536;2022-12-08T16:04:14;3.70;99.90
67777;DHT22;54576;52.020;5.536;2022-12-08T16:06:43;3.70;99.90
67777;DHT22;54576;52.020;5.536;2022-12-08T16:09:15;3.70;99.90
67777;DHT22;54576;52.020;5.536;2022-12-08T16:11:42;3.70;99.90
67777;DHT22;54576;52.020;5.536;2022-12-08T16:14:26;3.70;99.90
67777;DHT22;54576;52.020;5.536;2022-12-08T16:16:51;3.70;99.90
67777;DHT22;54576;52.020;5.536;2022-12-08T16:19:17;3.80;99.90
67777;DHT22;54576;52.020;5.536;2022-12-08T16:21:43;3.70;99.90
67777;DHT22;54576;52.020;5.536;2022-12-08T16:24:08;3.80;99.90
67777;DHT22;54576;52.020;5.536;2022-12-08T16:26:34;3.70;99.90
67777;DHT22;54576;52.020;5.536;2022-12-08T16:29:00;3.70;99.90
67777;DHT22;54576;52.020;5.536;2022-12-08T16:31:25;3.70;99.90
67777;DHT22;54576;52.020;5.536;2022-12-08T16:33:51;3.70;99.90
67777;DHT22;54576;52.020;5.536;2022-12-08T16:36:16;3.70;99.90
67777;DHT22;54576;52.020;5.536;2022-12-08T16:38:42;3.70;99.90
67777;DHT22;54576;52.020;5.536;2022-12-08T16:41:17;3.70;99.90
67777;DHT22;54576;52.020;5.536;2022-12-08T16:44:03;3.70;99.90
67777;DHT22;54576;52.020;5.536;2022-12-08T16:46:29;3.70;99.90
67777;DHT22;54576;52.020;5.536;2022-12-08T16:48:55;3.70;99.90
67777;DHT22;54576;52.020;5.536;2022-12-08T16:51:23;3.70;99.90
67777;DHT22;54576;52.020;5.536;2022-12-08T16:53:50;3.70;99.90
67777;DHT22;54576;52.020;5.536;2022-12-08T16:56:16;3.70;99.90
67777;DHT22;54576;52.020;5.536;2022-12-08T16:58:43;3.60;99.90
67777;DHT22;54576;52.020;5.536;2022-12-08T17:01:11;3.60;99.90
67777;DHT22;54576;52.020;5.536;2022-12-08T17:03:39;3.60;99.90
67777;DHT22;54576;52.020;5.536;2022-12-08T17:06:13;3.60;99.90
67777;DHT22;54576;52.020;5.536;2022-12-08T17:08:40;3.60;99.90
67777;DHT22;54576;52.020;5.536;2022-12-08T17:11:06;3.60;99.90
67777;DHT22;54576;52.020;5.536;2022-12-08T17:13:37;3.60;99.90
67777;DHT22;54576;52.020;5.536;2022-12-08T17:16:10;3.60;99.90
67777;DHT22;54576;52.020;5.536;2022-12-08T17:18:37;3.60;99.90
67777;DHT22;54576;52.020;5.536;2022-12-08T17:21:08;3.50;99.90
67777;DHT22;54576;52.020;5.536;2022-12-08T17:23:35;3.50;99.90
67777;DHT22;54576;52.020;5.536;2022-12-08T17:26:01;3.50;99.90